YSSYYSDU

Guest
Details From YSSY - Sydney Intl
To YSDU - Dubbo
Flight Number -
Tags Generated
Created
Modified
Stats Distance 168 nm / 311 km
Max Altitude 0 ft / 0 m
Waypoints 3
Social Downloads 1
Likes 0
Share VATSIM

Download

Looking for another format? Having issues loading an existing format? Contact us
Advertisement - Login to hide

Notes

Generated

Route

YSSY DU YSDU

ID Type Via Altitude Latitude Longitude Leg Dist Tot Dist Heading (true) Name
O YSSY APT - 0 ft / 0 m -33.94962˚ 151.18832˚ - 0 nm - -
DU VOR - 0 ft / 0 m -32.21953˚ 148.57771˚ 167 nm 167 nm 308° / 309° DUBBO VOR-DME
O YSDU APT - 0 ft / 0 m -32.21437˚ 148.57345˚ 0 nm 167 nm 325° / 325° -

Altitude Profile

Advertisement - Login to hide

Weather


0- 5 10 15 20 25 30 35+ Temperature / ° C

Clouds and Precipitation
Forecast for 2017-12-18 18:00 UTC. Updated 2 hours ago

Ground ~20,000 ft ~40,000 ft Winds

YSSY

Details ICAO YSSY (SYD)
Name Sydney Intl
Region Australia
Timezone Australia/Sydney (UTC+11.0)
Stats Elevation 21 ft / 6 m (AMSL)
Location -33.949273° 151.181347°
Runways 3
Magnetic Variation 12.599° E

METAR

YSSY 181500Z 16002KT CAVOK 22/21 Q1008 NOSIG

Decode

TAF

TAF YSSY 181103Z 1812/1918 02010KT 9999 FEW020 FM181500 30008KT 9999 FEW010 FM182100 02010KT 9999 FEW020 FM190200 03020G30KT CAVOK FM191000 01015KT CAVOK FM191400 29008KT CAVOK

Decode

Departure Runways

ID Width Length Bearing (true) Bearing (mag) Surface Threshold Offset Overrun Length
07 148 ft / 45 m 8,285 ft / 2,525 m 74.13° 61.53° Asphalt 0 ft / 0 m 0 ft / 0 m
16L 148 ft / 45 m 8,018 ft / 2,444 m 167.81° 155.21° Asphalt 758 ft / 231 m 0 ft / 0 m
16R 148 ft / 45 m 13,033 ft / 3,973 m 167.86° 155.26° Asphalt 279 ft / 85 m 0 ft / 0 m
25 148 ft / 45 m 8,285 ft / 2,525 m 254.12° 241.52° Asphalt 324 ft / 99 m 0 ft / 0 m
34L 148 ft / 45 m 13,033 ft / 3,973 m 347.85° 335.25° Asphalt 0 ft / 0 m 0 ft / 0 m
34R 148 ft / 45 m 8,018 ft / 2,444 m 347.81° 335.21° Asphalt 125 ft / 38 m 0 ft / 0 m

YSDU

Details ICAO YSDU (DBO)
Name Dubbo
Region Australia
Timezone Australia/Sydney (UTC+11.0)
Stats Elevation 935 ft / 285 m (AMSL)
Location -32.217486° 148.577269°
Runways 2
Magnetic Variation 11.083° E

METAR

YSDU 181500Z AUTO 06010KT 9999 // SCT120 28/17 Q1008

Decode

TAF

TAF YSDU 181058Z 1812/1906 05008KT CAVOK FM181800 36010KT CAVOK FM182100 35018G30KT CAVOK FM190100 33018G30KT CAVOK FM190400 32014KT CAVOK

Decode

Destination Runways

ID Width Length Bearing (true) Bearing (mag) Surface Threshold Offset Overrun Length
05 148 ft / 45 m 5,605 ft / 1,708 m 53.60° 42.52° Asphalt 0 ft / 0 m 0 ft / 0 m
11 59 ft / 18 m 3,498 ft / 1,066 m 119.18° 108.10° Asphalt 0 ft / 0 m 0 ft / 0 m
23 148 ft / 45 m 5,605 ft / 1,708 m 233.60° 222.52° Asphalt 0 ft / 0 m 0 ft / 0 m
29 59 ft / 18 m 3,498 ft / 1,066 m 299.17° 288.09° Asphalt 0 ft / 0 m 0 ft / 0 m

Popular Alternatives